Time,TemperatureF,DewpointF,PressureIn,WindDirection,WindDirectionDegrees,WindSpeedMPH,WindSpeedGustMPH,Humidity,HourlyPrecipIn,Conditions,Clouds,dailyrainin,SoftwareType,DateUTC
2013-11-16 00:23:00,42.0,34.0,-100.00,SSW,195,6.0,8.0,71,0.00,,,-99.99,,2013-11-16 05:23:00,
2013-11-16 00:52:00,43.0,34.0,-100.00,South,180,4.0,6.0,72,0.00,,,-99.99,,2013-11-16 05:52:00,
2013-11-16 01:22:00,42.0,36.0,-100.00,SSE,155,5.0,6.0,76,0.00,,,-99.99,,2013-11-16 06:22:00,
2013-11-16 01:52:00,42.0,36.0,-100.00,SSE,165,4.0,7.0,78,0.00,,,-99.99,,2013-11-16 06:52:00,
2013-11-16 02:22:00,43.0,37.0,-100.00,SSE,150,3.0,6.0,77,0.00,,,-99.99,,2013-11-16 07:22:00,
2013-11-16 02:52:00,42.0,37.0,-100.00,SSE,150,6.0,9.0,81,0.00,,,-99.99,,2013-11-16 07:52:00,
2013-11-16 03:22:00,44.0,38.0,-100.00,SE,145,6.0,9.0,78,0.00,,,-99.99,,2013-11-16 08:22:00,
2013-11-16 03:52:00,44.0,38.0,-100.00,SSE,150,7.0,11.0,79,0.00,,,-99.99,,2013-11-16 08:52:00,
2013-11-16 04:22:00,45.0,38.0,-100.00,SSE,160,9.0,12.0,78,0.00,,,-99.99,,2013-11-16 09:22:00,
2013-11-16 04:53:00,43.0,38.0,-100.00,SSE,155,4.0,8.0,81,0.00,,,-99.99,,2013-11-16 09:53:00,
2013-11-16 05:23:00,44.0,39.0,-100.00,SSE,150,8.0,11.0,81,0.00,,,-99.99,,2013-11-16 10:23:00,
2013-11-16 05:52:00,44.0,38.0,-100.00,SE,140,5.0,8.0,82,0.00,,,-99.99,,2013-11-16 10:52:00,
2013-11-16 06:22:00,43.0,38.0,-100.00,SE,130,7.0,10.0,83,0.00,,,-99.99,,2013-11-16 11:22:00,
2013-11-16 06:53:00,43.0,39.0,-100.00,SE,140,6.0,10.0,85,0.00,,,-99.99,,2013-11-16 11:53:00,
2013-11-16 07:21:00,43.0,40.0,-100.00,SSE,155,4.0,6.0,86,0.00,,,-99.99,,2013-11-16 12:21:00,
2013-11-16 07:52:00,43.0,40.0,-100.00,SE,140,6.0,8.0,87,0.00,,,-99.99,,2013-11-16 12:52:00,
2013-11-16 08:01:00,44.0,40.0,-100.00,ESE,120,6.0,8.0,88,0.00,,,-99.99,,2013-11-16 13:01:00,
2013-11-16 08:22:00,44.0,40.0,-100.00,ESE,120,6.0,8.0,88,0.00,,,-99.99,,2013-11-16 13:22:00,
2013-11-16 08:32:00,44.0,40.0,-100.00,ESE,120,6.0,8.0,88,0.00,,,-99.99,,2013-11-16 13:32:00,
2013-11-16 08:42:00,44.0,40.0,-100.00,ESE,120,6.0,8.0,88,0.00,,,-99.99,,2013-11-16 13:42:00,
2013-11-16 08:52:00,44.0,40.0,-100.00,ESE,120,6.0,8.0,88,0.00,,,-99.99,,2013-11-16 13:52:00,
2013-11-16 10:54:00,48.0,44.0,-100.00,SSE,150,7.0,10.0,86,0.00,,,-99.99,,2013-11-16 15:54:00,
2013-11-16 11:23:00,49.0,45.0,-100.00,SSE,150,6.0,12.0,83,0.00,,,-99.99,,2013-11-16 16:23:00,
2013-11-16 11:53:00,51.0,46.0,-100.00,SE,140,6.0,9.0,81,0.00,,,-99.99,,2013-11-16 16:53:00,
2013-11-16 12:22:00,53.0,47.0,-100.00,SE,145,7.0,12.0,80,0.00,,,-99.99,,2013-11-16 17:22:00,
2013-11-16 12:52:00,53.0,47.0,-100.00,SSE,150,11.0,18.0,80,0.00,,,-99.99,,2013-11-16 17:52:00,
2013-11-16 13:23:00,53.0,48.0,-100.00,South,175,7.0,14.0,81,0.00,,,-99.99,,2013-11-16 18:23:00,
2013-11-16 13:52:00,54.0,48.0,-100.00,SSE,150,11.0,14.0,79,0.00,,,-99.99,,2013-11-16 18:52:00,
2013-11-16 14:22:00,55.0,48.0,-100.00,SSE,155,12.0,15.0,79,0.00,,,-99.99,,2013-11-16 19:22:00,
2013-11-16 14:53:00,55.0,48.0,-100.00,SSE,150,8.0,12.0,77,0.00,,,-99.99,,2013-11-16 19:53:00,
2013-11-16 15:22:00,56.0,48.0,-100.00,SSE,155,7.0,12.0,76,0.00,,,-99.99,,2013-11-16 20:22:00,
2013-11-16 16:22:00,56.0,49.0,-100.00,SSE,155,8.0,15.0,76,0.00,,,-99.99,,2013-11-16 21:22:00,
2013-11-16 16:54:00,56.0,49.0,-100.00,SSE,155,9.0,12.0,77,0.00,,,-99.99,,2013-11-16 21:54:00,
2013-11-16 17:24:00,55.0,49.0,-100.00,SSE,155,11.0,14.0,78,0.00,,,-99.99,,2013-11-16 22:24:00,
2013-11-16 17:53:00,55.0,49.0,-100.00,SE,145,7.0,11.0,79,0.00,,,-99.99,,2013-11-16 22:53:00,
2013-11-16 18:22:00,54.0,49.0,-100.00,SSE,160,7.0,11.0,81,0.00,,,-99.99,,2013-11-16 23:22:00,
2013-11-16 18:53:00,55.0,49.0,-100.00,SSE,160,9.0,12.0,81,0.00,,,-99.99,,2013-11-16 23:53:00,
2013-11-16 19:22:00,54.0,49.0,-100.00,SSE,150,9.0,14.0,82,0.00,,,-99.99,,2013-11-17 00:22:00,
2013-11-16 19:52:00,54.0,49.0,-100.00,SSE,150,11.0,14.0,83,0.00,,,-99.99,,2013-11-17 00:52:00,
2013-11-16 20:22:00,54.0,49.0,-100.00,SE,145,11.0,14.0,83,0.00,,,-99.99,,2013-11-17 01:22:00,
2013-11-16 20:52:00,54.0,49.0,-100.00,SE,140,10.0,15.0,84,0.00,,,-99.99,,2013-11-17 01:52:00,
2013-11-16 21:02:00,54.0,49.0,-100.00,SE,140,10.0,15.0,84,0.00,,,-99.99,,2013-11-17 02:02:00,
2013-11-16 21:22:00,54.0,50.0,-100.00,SE,145,9.0,13.0,84,0.00,,,-99.99,,2013-11-17 02:22:00,
2013-11-16 21:52:00,55.0,50.0,-100.00,SE,140,9.0,12.0,84,0.00,,,-99.99,,2013-11-17 02:52:00,
2013-11-16 22:22:00,55.0,50.0,-100.00,SSE,150,10.0,12.0,84,0.00,,,-99.99,,2013-11-17 03:22:00,
2013-11-16 22:44:00,55.0,50.0,-100.00,SSE,150,9.0,13.0,83,0.00,,,-99.99,,2013-11-17 03:44:00,
2013-11-16 22:55:00,55.0,50.0,-100.00,SSE,150,12.0,16.0,82,0.00,,,-99.99,,2013-11-17 03:55:00,
2013-11-16 23:03:00,-999.0,-99.9,-100.00,SSE,160,11.0,19.0,-999,-99.99,,,-99.99,,2013-11-17 04:03:00,
2013-11-16 23:24:00,55.0,50.0,-100.00,SSE,155,12.0,16.0,81,0.00,,,-99.99,,2013-11-17 04:24:00,
2013-11-16 23:53:00,56.0,50.0,-100.00,SSE,155,12.0,19.0,79,0.00,,,-99.99,,2013-11-17 04:53:00,